sensor_id;sensor_type;location;lat;lon;timestamp;P1;durP1;ratioP1;P2;durP2;ratioP2
16957;SDS011;8595;52.542;11.974;2023-02-01T00:01:30;19.07;;;5.00;;
16957;SDS011;8595;52.542;11.974;2023-02-01T00:03:56;25.03;;;5.10;;
16957;SDS011;8595;52.542;11.974;2023-02-01T00:06:23;23.30;;;5.37;;
16957;SDS011;8595;52.542;11.974;2023-02-01T00:08:52;23.90;;;6.50;;
16957;SDS011;8595;52.542;11.974;2023-02-01T00:11:19;20.03;;;4.07;;
16957;SDS011;8595;52.542;11.974;2023-02-01T00:13:47;15.70;;;4.03;;
16957;SDS011;8595;52.542;11.974;2023-02-01T00:16:15;17.80;;;4.93;;
16957;SDS011;8595;52.542;11.974;2023-02-01T00:18:46;15.93;;;5.00;;
16957;SDS011;8595;52.542;11.974;2023-02-01T00:21:14;19.53;;;4.50;;
16957;SDS011;8595;52.542;11.974;2023-02-01T00:23:42;22.63;;;4.87;;
16957;SDS011;8595;52.542;11.974;2023-02-01T00:26:11;24.70;;;5.50;;
16957;SDS011;8595;52.542;11.974;2023-02-01T00:28:40;21.67;;;6.50;;
16957;SDS011;8595;52.542;11.974;2023-02-01T00:31:07;18.70;;;5.03;;
16957;SDS011;8595;52.542;11.974;2023-02-01T00:33:34;33.43;;;7.30;;
16957;SDS011;8595;52.542;11.974;2023-02-01T00:36:03;23.70;;;7.07;;
16957;SDS011;8595;52.542;11.974;2023-02-01T00:38:31;20.13;;;5.77;;
16957;SDS011;8595;52.542;11.974;2023-02-01T00:41:01;21.20;;;6.53;;
16957;SDS011;8595;52.542;11.974;2023-02-01T00:43:30;22.93;;;5.70;;
16957;SDS011;8595;52.542;11.974;2023-02-01T00:45:56;24.47;;;6.03;;
16957;SDS011;8595;52.542;11.974;2023-02-01T00:48:23;31.37;;;5.57;;
16957;SDS011;8595;52.542;11.974;2023-02-01T00:50:50;17.93;;;5.63;;
16957;SDS011;8595;52.542;11.974;2023-02-01T00:53:18;16.83;;;4.70;;
16957;SDS011;8595;52.542;11.974;2023-02-01T00:55:45;24.00;;;5.67;;
16957;SDS011;8595;52.542;11.974;2023-02-01T00:58:12;24.43;;;6.70;;
16957;SDS011;8595;52.542;11.974;2023-02-01T01:00:42;17.33;;;5.50;;
16957;SDS011;8595;52.542;11.974;2023-02-01T01:03:11;38.33;;;6.60;;
16957;SDS011;8595;52.542;11.974;2023-02-01T01:05:44;21.50;;;5.70;;
16957;SDS011;8595;52.542;11.974;2023-02-01T01:08:11;17.47;;;4.77;;
16957;SDS011;8595;52.542;11.974;2023-02-01T01:10:40;27.47;;;5.17;;
16957;SDS011;8595;52.542;11.974;2023-02-01T01:13:07;17.10;;;4.97;;
16957;SDS011;8595;52.542;11.974;2023-02-01T01:15:35;25.83;;;5.93;;
16957;SDS011;8595;52.542;11.974;2023-02-01T01:18:03;18.50;;;5.43;;
16957;SDS011;8595;52.542;11.974;2023-02-01T01:20:29;23.53;;;5.77;;
16957;SDS011;8595;52.542;11.974;2023-02-01T01:22:56;18.27;;;4.73;;
16957;SDS011;8595;52.542;11.974;2023-02-01T01:25:23;18.87;;;5.73;;
16957;SDS011;8595;52.542;11.974;2023-02-01T01:27:51;21.17;;;5.40;;
16957;SDS011;8595;52.542;11.974;2023-02-01T01:30:20;19.90;;;4.80;;
16957;SDS011;8595;52.542;11.974;2023-02-01T01:32:47;19.07;;;5.50;;
16957;SDS011;8595;52.542;11.974;2023-02-01T01:35:14;25.07;;;5.10;;
16957;SDS011;8595;52.542;11.974;2023-02-01T01:37:41;23.10;;;4.70;;
16957;SDS011;8595;52.542;11.974;2023-02-01T01:40:09;24.17;;;5.33;;
16957;SDS011;8595;52.542;11.974;2023-02-01T01:42:37;23.07;;;5.03;;
16957;SDS011;8595;52.542;11.974;2023-02-01T01:45:06;14.97;;;4.93;;
16957;SDS011;8595;52.542;11.974;2023-02-01T01:47:43;16.50;;;4.60;;
16957;SDS011;8595;52.542;11.974;2023-02-01T01:50:14;31.60;;;5.60;;
16957;SDS011;8595;52.542;11.974;2023-02-01T01:52:45;24.13;;;5.20;;
16957;SDS011;8595;52.542;11.974;2023-02-01T01:55:14;15.53;;;4.53;;
16957;SDS011;8595;52.542;11.974;2023-02-01T01:57:45;28.97;;;4.83;;
16957;SDS011;8595;52.542;11.974;2023-02-01T02:00:19;18.53;;;4.13;;
16957;SDS011;8595;52.542;11.974;2023-02-01T02:02:47;23.63;;;5.17;;
16957;SDS011;8595;52.542;11.974;2023-02-01T02:05:18;23.13;;;5.57;;
16957;SDS011;8595;52.542;11.974;2023-02-01T02:07:46;15.47;;;4.10;;
16957;SDS011;8595;52.542;11.974;2023-02-01T02:10:15;26.20;;;5.43;;
16957;SDS011;8595;52.542;11.974;2023-02-01T02:12:43;19.10;;;4.80;;
16957;SDS011;8595;52.542;11.974;2023-02-01T02:15:13;18.37;;;4.40;;
16957;SDS011;8595;52.542;11.974;2023-02-01T02:17:44;19.70;;;5.40;;
16957;SDS011;8595;52.542;11.974;2023-02-01T02:20:31;13.13;;;4.57;;
16957;SDS011;8595;52.542;11.974;2023-02-01T02:26:29;25.23;;;5.53;;
16957;SDS011;8595;52.542;11.974;2023-02-01T02:29:24;19.63;;;3.90;;
16957;SDS011;8595;52.542;11.974;2023-02-01T02:35:26;20.23;;;4.80;;
16957;SDS011;8595;52.542;11.974;2023-02-01T02:37:59;27.23;;;5.83;;
16957;SDS011;8595;52.542;11.974;2023-02-01T02:40:41;18.93;;;5.17;;
16957;SDS011;8595;52.542;11.974;2023-02-01T02:43:15;28.17;;;5.70;;
16957;SDS011;8595;52.542;11.974;2023-02-01T02:46:05;26.00;;;5.53;;
16957;SDS011;8595;52.542;11.974;2023-02-01T02:48:55;26.73;;;6.00;;
16957;SDS011;8595;52.542;11.974;2023-02-01T02:51:31;17.97;;;5.17;;
16957;SDS011;8595;52.542;11.974;2023-02-01T02:54:21;21.67;;;5.97;;
16957;SDS011;8595;52.542;11.974;2023-02-01T02:57:08;20.43;;;5.47;;
16957;SDS011;8595;52.542;11.974;2023-02-01T02:59:56;23.73;;;5.53;;
16957;SDS011;8595;52.542;11.974;2023-02-01T03:02:42;24.47;;;5.50;;
16957;SDS011;8595;52.542;11.974;2023-02-01T03:05:31;22.27;;;5.20;;
16957;SDS011;8595;52.542;11.974;2023-02-01T03:08:04;16.13;;;4.63;;
16957;SDS011;8595;52.542;11.974;2023-02-01T03:10:47;26.33;;;5.57;;
16957;SDS011;8595;52.542;11.974;2023-02-01T03:13:19;18.33;;;5.20;;
16957;SDS011;8595;52.542;11.974;2023-02-01T03:15:53;18.00;;;4.90;;
16957;SDS011;8595;52.542;11.974;2023-02-01T03:18:26;23.90;;;4.90;;
16957;SDS011;8595;52.542;11.974;2023-02-01T03:20:59;24.90;;;5.23;;
16957;SDS011;8595;52.542;11.974;2023-02-01T03:23:32;22.33;;;5.50;;
16957;SDS011;8595;52.542;11.974;2023-02-01T03:26:03;23.03;;;5.43;;
16957;SDS011;8595;52.542;11.974;2023-02-01T03:28:32;14.73;;;4.10;;
16957;SDS011;8595;52.542;11.974;2023-02-01T03:31:00;25.83;;;5.23;;
16957;SDS011;8595;52.542;11.974;2023-02-01T03:33:28;21.80;;;5.13;;
16957;SDS011;8595;52.542;11.974;2023-02-01T03:36:01;25.53;;;6.53;;
16957;SDS011;8595;52.542;11.974;2023-02-01T03:38:37;23.63;;;5.33;;
16957;SDS011;8595;52.542;11.974;2023-02-01T03:41:09;28.20;;;6.00;;
16957;SDS011;8595;52.542;11.974;2023-02-01T03:43:42;28.17;;;6.27;;
16957;SDS011;8595;52.542;11.974;2023-02-01T03:46:17;27.57;;;6.43;;
16957;SDS011;8595;52.542;11.974;2023-02-01T03:48:49;21.50;;;6.53;;
16957;SDS011;8595;52.542;11.974;2023-02-01T03:51:19;18.23;;;5.80;;
16957;SDS011;8595;52.542;11.974;2023-02-01T03:53:48;27.17;;;7.57;;
16957;SDS011;8595;52.542;11.974;2023-02-01T03:56:17;34.07;;;7.80;;
16957;SDS011;8595;52.542;11.974;2023-02-01T03:58:47;18.50;;;5.17;;
16957;SDS011;8595;52.542;11.974;2023-02-01T04:01:24;28.83;;;6.00;;
16957;SDS011;8595;52.542;11.974;2023-02-01T04:03:51;28.63;;;6.90;;
16957;SDS011;8595;52.542;11.974;2023-02-01T04:06:18;18.27;;;4.70;;
16957;SDS011;8595;52.542;11.974;2023-02-01T04:08:44;21.63;;;5.80;;
16957;SDS011;8595;52.542;11.974;2023-02-01T04:11:13;30.23;;;7.20;;
16957;SDS011;8595;52.542;11.974;2023-02-01T04:13:40;22.37;;;5.73;;
16957;SDS011;8595;52.542;11.974;2023-02-01T04:16:06;29.80;;;7.00;;
16957;SDS011;8595;52.542;11.974;2023-02-01T04:18:33;25.93;;;6.27;;
16957;SDS011;8595;52.542;11.974;2023-02-01T04:21:00;40.93;;;8.37;;
16957;SDS011;8595;52.542;11.974;2023-02-01T04:23:26;26.70;;;6.37;;
16957;SDS011;8595;52.542;11.974;2023-02-01T04:25:53;19.00;;;5.97;;
16957;SDS011;8595;52.542;11.974;2023-02-01T04:28:26;17.90;;;5.10;;
16957;SDS011;8595;52.542;11.974;2023-02-01T04:30:52;24.57;;;6.23;;
16957;SDS011;8595;52.542;11.974;2023-02-01T04:33:19;34.60;;;7.57;;
16957;SDS011;8595;52.542;11.974;2023-02-01T04:35:46;25.63;;;5.37;;
16957;SDS011;8595;52.542;11.974;2023-02-01T04:38:13;20.53;;;5.53;;
16957;SDS011;8595;52.542;11.974;2023-02-01T04:40:40;26.27;;;6.97;;
16957;SDS011;8595;52.542;11.974;2023-02-01T04:43:07;16.43;;;5.20;;
16957;SDS011;8595;52.542;11.974;2023-02-01T04:45:35;22.00;;;5.67;;
16957;SDS011;8595;52.542;11.974;2023-02-01T04:48:02;24.53;;;5.63;;
16957;SDS011;8595;52.542;11.974;2023-02-01T04:50:29;24.50;;;5.10;;
16957;SDS011;8595;52.542;11.974;2023-02-01T04:52:55;18.43;;;5.47;;
16957;SDS011;8595;52.542;11.974;2023-02-01T04:55:22;27.53;;;5.50;;
16957;SDS011;8595;52.542;11.974;2023-02-01T04:57:49;26.57;;;5.60;;
16957;SDS011;8595;52.542;11.974;2023-02-01T05:00:16;28.70;;;5.33;;
16957;SDS011;8595;52.542;11.974;2023-02-01T05:02:44;23.10;;;6.73;;
16957;SDS011;8595;52.542;11.974;2023-02-01T05:05:11;24.07;;;5.37;;
16957;SDS011;8595;52.542;11.974;2023-02-01T05:07:37;18.77;;;4.83;;
16957;SDS011;8595;52.542;11.974;2023-02-01T05:10:04;19.60;;;4.50;;
16957;SDS011;8595;52.542;11.974;2023-02-01T05:12:32;27.23;;;5.20;;
16957;SDS011;8595;52.542;11.974;2023-02-01T05:15:18;22.73;;;5.07;;
16957;SDS011;8595;52.542;11.974;2023-02-01T05:17:46;24.00;;;6.37;;
16957;SDS011;8595;52.542;11.974;2023-02-01T05:20:13;22.40;;;4.83;;
16957;SDS011;8595;52.542;11.974;2023-02-01T05:22:40;26.10;;;5.37;;
16957;SDS011;8595;52.542;11.974;2023-02-01T05:25:07;23.03;;;6.30;;
16957;SDS011;8595;52.542;11.974;2023-02-01T05:27:34;17.93;;;5.53;;
16957;SDS011;8595;52.542;11.974;2023-02-01T05:30:02;26.50;;;5.30;;
16957;SDS011;8595;52.542;11.974;2023-02-01T05:32:30;23.53;;;6.03;;
16957;SDS011;8595;52.542;11.974;2023-02-01T05:34:58;15.77;;;4.63;;
16957;SDS011;8595;52.542;11.974;2023-02-01T05:37:24;24.37;;;5.23;;
16957;SDS011;8595;52.542;11.974;2023-02-01T05:39:52;20.73;;;5.53;;
16957;SDS011;8595;52.542;11.974;2023-02-01T05:42:18;20.70;;;5.13;;
16957;SDS011;8595;52.542;11.974;2023-02-01T05:44:45;21.90;;;5.70;;
16957;SDS011;8595;52.542;11.974;2023-02-01T05:47:12;14.10;;;4.50;;
16957;SDS011;8595;52.542;11.974;2023-02-01T05:49:38;22.93;;;5.13;;
16957;SDS011;8595;52.542;11.974;2023-02-01T05:52:06;29.27;;;5.80;;
16957;SDS011;8595;52.542;11.974;2023-02-01T05:54:33;20.53;;;5.47;;
16957;SDS011;8595;52.542;11.974;2023-02-01T05:57:00;23.60;;;5.20;;
16957;SDS011;8595;52.542;11.974;2023-02-01T05:59:26;24.43;;;6.87;;
16957;SDS011;8595;52.542;11.974;2023-02-01T06:01:54;21.00;;;5.57;;
16957;SDS011;8595;52.542;11.974;2023-02-01T06:04:21;25.37;;;5.80;;
16957;SDS011;8595;52.542;11.974;2023-02-01T06:06:47;28.30;;;6.10;;
16957;SDS011;8595;52.542;11.974;2023-02-01T06:09:16;21.33;;;5.47;;
16957;SDS011;8595;52.542;11.974;2023-02-01T06:11:43;24.43;;;6.00;;
16957;SDS011;8595;52.542;11.974;2023-02-01T06:14:10;18.70;;;5.97;;
16957;SDS011;8595;52.542;11.974;2023-02-01T06:16:36;20.50;;;5.13;;
16957;SDS011;8595;52.542;11.974;2023-02-01T06:19:03;25.67;;;5.30;;
16957;SDS011;8595;52.542;11.974;2023-02-01T06:21:29;28.80;;;6.30;;
16957;SDS011;8595;52.542;11.974;2023-02-01T06:23:56;20.63;;;5.27;;
16957;SDS011;8595;52.542;11.974;2023-02-01T06:26:24;28.40;;;6.77;;
16957;SDS011;8595;52.542;11.974;2023-02-01T06:28:53;21.17;;;5.63;;
16957;SDS011;8595;52.542;11.974;2023-02-01T06:31:20;20.40;;;5.03;;
16957;SDS011;8595;52.542;11.974;2023-02-01T06:33:46;16.93;;;5.47;;
16957;SDS011;8595;52.542;11.974;2023-02-01T06:36:14;28.30;;;6.40;;
16957;SDS011;8595;52.542;11.974;2023-02-01T06:38:41;24.07;;;6.43;;
16957;SDS011;8595;52.542;11.974;2023-02-01T06:41:08;20.60;;;5.83;;
16957;SDS011;8595;52.542;11.974;2023-02-01T06:43:37;21.23;;;5.43;;
16957;SDS011;8595;52.542;11.974;2023-02-01T06:46:04;19.27;;;5.07;;
16957;SDS011;8595;52.542;11.974;2023-02-01T06:48:33;23.00;;;5.77;;
16957;SDS011;8595;52.542;11.974;2023-02-01T06:51:00;22.70;;;7.40;;
16957;SDS011;8595;52.542;11.974;2023-02-01T06:53:27;16.93;;;5.13;;
16957;SDS011;8595;52.542;11.974;2023-02-01T06:55:54;17.93;;;5.20;;
16957;SDS011;8595;52.542;11.974;2023-02-01T06:58:22;29.33;;;9.20;;
16957;SDS011;8595;52.542;11.974;2023-02-01T07:00:50;26.53;;;7.33;;
16957;SDS011;8595;52.542;11.974;2023-02-01T07:03:18;17.33;;;6.83;;
16957;SDS011;8595;52.542;11.974;2023-02-01T07:05:45;30.03;;;9.07;;
16957;SDS011;8595;52.542;11.974;2023-02-01T07:08:12;22.97;;;7.37;;
16957;SDS011;8595;52.542;11.974;2023-02-01T07:10:39;14.63;;;5.57;;
16957;SDS011;8595;52.542;11.974;2023-02-01T07:13:06;19.33;;;6.83;;
16957;SDS011;8595;52.542;11.974;2023-02-01T07:15:32;16.70;;;6.50;;
16957;SDS011;8595;52.542;11.974;2023-02-01T07:18:01;22.53;;;7.33;;
16957;SDS011;8595;52.542;11.974;2023-02-01T07:20:27;15.23;;;5.93;;
16957;SDS011;8595;52.542;11.974;2023-02-01T07:22:54;22.10;;;5.20;;
16957;SDS011;8595;52.542;11.974;2023-02-01T07:25:22;21.83;;;5.93;;
16957;SDS011;8595;52.542;11.974;2023-02-01T07:27:49;19.33;;;5.70;;
16957;SDS011;8595;52.542;11.974;2023-02-01T07:30:16;25.83;;;6.57;;
16957;SDS011;8595;52.542;11.974;2023-02-01T07:32:43;16.80;;;5.90;;
16957;SDS011;8595;52.542;11.974;2023-02-01T07:35:11;10.70;;;5.10;;
16957;SDS011;8595;52.542;11.974;2023-02-01T07:37:39;21.10;;;6.07;;
16957;SDS011;8595;52.542;11.974;2023-02-01T07:40:06;15.23;;;5.30;;
16957;SDS011;8595;52.542;11.974;2023-02-01T07:42:33;16.30;;;6.23;;
16957;SDS011;8595;52.542;11.974;2023-02-01T07:45:00;18.17;;;6.23;;
16957;SDS011;8595;52.542;11.974;2023-02-01T07:47:27;18.40;;;7.20;;
16957;SDS011;8595;52.542;11.974;2023-02-01T07:49:54;14.70;;;7.57;;
16957;SDS011;8595;52.542;11.974;2023-02-01T07:52:22;17.70;;;8.37;;
16957;SDS011;8595;52.542;11.974;2023-02-01T07:54:48;18.00;;;5.90;;
16957;SDS011;8595;52.542;11.974;2023-02-01T07:57:15;21.40;;;6.93;;
16957;SDS011;8595;52.542;11.974;2023-02-01T07:59:41;11.00;;;5.33;;
16957;SDS011;8595;52.542;11.974;2023-02-01T08:02:23;18.60;;;5.43;;
16957;SDS011;8595;52.542;11.974;2023-02-01T08:04:49;18.43;;;6.30;;
16957;SDS011;8595;52.542;11.974;2023-02-01T08:07:16;13.97;;;6.17;;
16957;SDS011;8595;52.542;11.974;2023-02-01T08:09:44;16.10;;;5.07;;
16957;SDS011;8595;52.542;11.974;2023-02-01T08:12:11;13.40;;;7.00;;
16957;SDS011;8595;52.542;11.974;2023-02-01T08:14:37;16.90;;;9.50;;
16957;SDS011;8595;52.542;11.974;2023-02-01T08:17:05;11.93;;;5.43;;
16957;SDS011;8595;52.542;11.974;2023-02-01T08:19:32;12.20;;;4.93;;
16957;SDS011;8595;52.542;11.974;2023-02-01T08:21:59;10.13;;;4.90;;
16957;SDS011;8595;52.542;11.974;2023-02-01T08:24:27;6.40;;;3.40;;
16957;SDS011;8595;52.542;11.974;2023-02-01T08:26:55;8.10;;;4.10;;
16957;SDS011;8595;52.542;11.974;2023-02-01T08:29:21;12.67;;;3.53;;
16957;SDS011;8595;52.542;11.974;2023-02-01T08:31:48;6.77;;;3.77;;
16957;SDS011;8595;52.542;11.974;2023-02-01T08:34:15;6.93;;;2.63;;
16957;SDS011;8595;52.542;11.974;2023-02-01T08:36:42;6.63;;;2.00;;
16957;SDS011;8595;52.542;11.974;2023-02-01T08:39:09;8.80;;;2.73;;
16957;SDS011;8595;52.542;11.974;2023-02-01T08:41:36;5.07;;;2.90;;
16957;SDS011;8595;52.542;11.974;2023-02-01T08:44:05;5.27;;;1.77;;
16957;SDS011;8595;52.542;11.974;2023-02-01T08:46:31;5.20;;;2.23;;
16957;SDS011;8595;52.542;11.974;2023-02-01T08:48:58;2.53;;;1.77;;
16957;SDS011;8595;52.542;11.974;2023-02-01T08:51:25;3.33;;;1.90;;
16957;SDS011;8595;52.542;11.974;2023-02-01T08:53:52;4.67;;;1.97;;
16957;SDS011;8595;52.542;11.974;2023-02-01T08:56:18;2.67;;;2.00;;
16957;SDS011;8595;52.542;11.974;2023-02-01T08:58:45;2.13;;;1.60;;
16957;SDS011;8595;52.542;11.974;2023-02-01T09:01:14;2.10;;;1.80;;
16957;SDS011;8595;52.542;11.974;2023-02-01T09:03:42;1.63;;;1.53;;
16957;SDS011;8595;52.542;11.974;2023-02-01T09:06:09;2.03;;;1.50;;
16957;SDS011;8595;52.542;11.974;2023-02-01T09:08:38;1.63;;;1.53;;
16957;SDS011;8595;52.542;11.974;2023-02-01T09:11:07;2.47;;;1.87;;
16957;SDS011;8595;52.542;11.974;2023-02-01T09:13:36;1.97;;;1.83;;
16957;SDS011;8595;52.542;11.974;2023-02-01T09:16:03;2.10;;;1.90;;
16957;SDS011;8595;52.542;11.974;2023-02-01T09:18:31;1.90;;;1.80;;
16957;SDS011;8595;52.542;11.974;2023-02-01T09:20:58;1.77;;;1.67;;
16957;SDS011;8595;52.542;11.974;2023-02-01T09:23:24;4.43;;;2.97;;
16957;SDS011;8595;52.542;11.974;2023-02-01T09:25:51;6.47;;;5.43;;
16957;SDS011;8595;52.542;11.974;2023-02-01T09:28:18;5.20;;;3.90;;
16957;SDS011;8595;52.542;11.974;2023-02-01T09:30:45;16.20;;;8.30;;
16957;SDS011;8595;52.542;11.974;2023-02-01T09:33:12;9.23;;;4.30;;
16957;SDS011;8595;52.542;11.974;2023-02-01T09:35:40;11.77;;;7.47;;
16957;SDS011;8595;52.542;11.974;2023-02-01T09:38:07;7.30;;;4.97;;
16957;SDS011;8595;52.542;11.974;2023-02-01T09:40:33;13.03;;;5.40;;
16957;SDS011;8595;52.542;11.974;2023-02-01T09:43:15;12.47;;;6.07;;
16957;SDS011;8595;52.542;11.974;2023-02-01T09:45:51;8.87;;;3.43;;
16957;SDS011;8595;52.542;11.974;2023-02-01T09:48:27;9.47;;;3.60;;
16957;SDS011;8595;52.542;11.974;2023-02-01T09:50:59;10.53;;;3.80;;
16957;SDS011;8595;52.542;11.974;2023-02-01T09:53:32;14.57;;;4.70;;
16957;SDS011;8595;52.542;11.974;2023-02-01T09:56:02;12.30;;;5.10;;
16957;SDS011;8595;52.542;11.974;2023-02-01T09:58:32;6.13;;;3.20;;
16957;SDS011;8595;52.542;11.974;2023-02-01T10:01:04;12.10;;;3.93;;
16957;SDS011;8595;52.542;11.974;2023-02-01T10:03:39;14.80;;;4.50;;
16957;SDS011;8595;52.542;11.974;2023-02-01T10:06:13;11.57;;;4.23;;
16957;SDS011;8595;52.542;11.974;2023-02-01T10:08:57;10.93;;;4.20;;
16957;SDS011;8595;52.542;11.974;2023-02-01T10:11:42;9.40;;;4.03;;
16957;SDS011;8595;52.542;11.974;2023-02-01T10:14:27;10.73;;;3.67;;
16957;SDS011;8595;52.542;11.974;2023-02-01T10:17:12;11.43;;;4.70;;
16957;SDS011;8595;52.542;11.974;2023-02-01T10:19:47;9.97;;;4.23;;
16957;SDS011;8595;52.542;11.974;2023-02-01T10:22:24;11.73;;;4.07;;
16957;SDS011;8595;52.542;11.974;2023-02-01T10:25:00;12.03;;;4.00;;
16957;SDS011;8595;52.542;11.974;2023-02-01T10:27:34;12.10;;;4.07;;
16957;SDS011;8595;52.542;11.974;2023-02-01T10:30:04;7.33;;;3.77;;
16957;SDS011;8595;52.542;11.974;2023-02-01T10:32:40;9.77;;;3.83;;
16957;SDS011;8595;52.542;11.974;2023-02-01T10:35:08;12.40;;;4.20;;
16957;SDS011;8595;52.542;11.974;2023-02-01T10:37:40;12.57;;;4.67;;
16957;SDS011;8595;52.542;11.974;2023-02-01T10:40:13;13.60;;;4.83;;
16957;SDS011;8595;52.542;11.974;2023-02-01T10:42:43;19.80;;;5.23;;
16957;SDS011;8595;52.542;11.974;2023-02-01T10:45:12;11.27;;;4.27;;
16957;SDS011;8595;52.542;11.974;2023-02-01T10:47:41;15.87;;;4.77;;
16957;SDS011;8595;52.542;11.974;2023-02-01T10:50:14;12.33;;;4.40;;
16957;SDS011;8595;52.542;11.974;2023-02-01T10:52:48;11.77;;;3.83;;
16957;SDS011;8595;52.542;11.974;2023-02-01T10:55:35;13.03;;;4.10;;
16957;SDS011;8595;52.542;11.974;2023-02-01T10:58:06;12.43;;;5.30;;
16957;SDS011;8595;52.542;11.974;2023-02-01T11:00:42;10.43;;;3.60;;
16957;SDS011;8595;52.542;11.974;2023-02-01T11:03:30;15.63;;;4.37;;
16957;SDS011;8595;52.542;11.974;2023-02-01T11:06:00;23.47;;;5.00;;
16957;SDS011;8595;52.542;11.974;2023-02-01T11:08:30;11.50;;;4.47;;
16957;SDS011;8595;52.542;11.974;2023-02-01T11:10:57;15.67;;;4.77;;
16957;SDS011;8595;52.542;11.974;2023-02-01T11:13:30;15.87;;;4.57;;
16957;SDS011;8595;52.542;11.974;2023-02-01T11:16:01;7.67;;;3.33;;
16957;SDS011;8595;52.542;11.974;2023-02-01T11:18:30;17.40;;;4.50;;
16957;SDS011;8595;52.542;11.974;2023-02-01T11:20:58;14.70;;;5.10;;
16957;SDS011;8595;52.542;11.974;2023-02-01T11:23:26;12.20;;;4.07;;
16957;SDS011;8595;52.542;11.974;2023-02-01T11:25:57;11.63;;;3.93;;
16957;SDS011;8595;52.542;11.974;2023-02-01T11:28:26;13.60;;;4.30;;
16957;SDS011;8595;52.542;11.974;2023-02-01T11:30:56;9.73;;;4.03;;
16957;SDS011;8595;52.542;11.974;2023-02-01T11:33:29;7.93;;;3.80;;
16957;SDS011;8595;52.542;11.974;2023-02-01T11:36:00;14.97;;;4.07;;
16957;SDS011;8595;52.542;11.974;2023-02-01T11:38:33;9.38;;;3.38;;
16957;SDS011;8595;52.542;11.974;2023-02-01T11:41:12;11.82;;;3.67;;
16957;SDS011;8595;52.542;11.974;2023-02-01T11:43:49;12.70;;;4.18;;
16957;SDS011;8595;52.542;11.974;2023-02-01T11:46:19;8.80;;;3.55;;
16957;SDS011;8595;52.542;11.974;2023-02-01T11:48:50;10.65;;;3.95;;
16957;SDS011;8595;52.542;11.974;2023-02-01T11:51:21;11.15;;;3.22;;
16957;SDS011;8595;52.542;11.974;2023-02-01T11:54:11;13.40;;;4.30;;
16957;SDS011;8595;52.542;11.974;2023-02-01T11:56:55;11.07;;;3.50;;
16957;SDS011;8595;52.542;11.974;2023-02-01T11:59:33;10.68;;;3.15;;
16957;SDS011;8595;52.542;11.974;2023-02-01T12:02:19;12.15;;;3.83;;
16957;SDS011;8595;52.542;11.974;2023-02-01T12:05:08;13.98;;;4.45;;
16957;SDS011;8595;52.542;11.974;2023-02-01T12:07:51;15.87;;;4.43;;
16957;SDS011;8595;52.542;11.974;2023-02-01T12:10:30;14.27;;;4.87;;
16957;SDS011;8595;52.542;11.974;2023-02-01T12:13:10;12.13;;;5.93;;
16957;SDS011;8595;52.542;11.974;2023-02-01T12:15:56;15.43;;;5.87;;
16957;SDS011;8595;52.542;11.974;2023-02-01T12:21:39;15.60;;;4.77;;
16957;SDS011;8595;52.542;11.974;2023-02-01T12:27:26;13.63;;;4.50;;
16957;SDS011;8595;52.542;11.974;2023-02-01T12:30:31;13.67;;;4.50;;
16957;SDS011;8595;52.542;11.974;2023-02-01T12:33:12;15.47;;;5.03;;
16957;SDS011;8595;52.542;11.974;2023-02-01T12:35:47;23.57;;;6.30;;
16957;SDS011;8595;52.542;11.974;2023-02-01T12:38:27;20.10;;;7.30;;
16957;SDS011;8595;52.542;11.974;2023-02-01T12:41:05;15.63;;;5.10;;
16957;SDS011;8595;52.542;11.974;2023-02-01T12:43:42;19.13;;;5.30;;
16957;SDS011;8595;52.542;11.974;2023-02-01T12:46:16;22.37;;;5.93;;
16957;SDS011;8595;52.542;11.974;2023-02-01T12:48:49;14.67;;;5.97;;
16957;SDS011;8595;52.542;11.974;2023-02-01T12:51:23;21.83;;;5.80;;
16957;SDS011;8595;52.542;11.974;2023-02-01T12:53:54;21.37;;;6.67;;
16957;SDS011;8595;52.542;11.974;2023-02-01T12:56:25;22.27;;;6.70;;
16957;SDS011;8595;52.542;11.974;2023-02-01T12:58:56;19.40;;;6.33;;
16957;SDS011;8595;52.542;11.974;2023-02-01T13:01:28;16.53;;;5.20;;
16957;SDS011;8595;52.542;11.974;2023-02-01T13:04:01;14.30;;;5.50;;
16957;SDS011;8595;52.542;11.974;2023-02-01T13:06:35;15.53;;;5.17;;
16957;SDS011;8595;52.542;11.974;2023-02-01T13:09:06;20.03;;;5.17;;
16957;SDS011;8595;52.542;11.974;2023-02-01T13:11:42;17.33;;;4.53;;
16957;SDS011;8595;52.542;11.974;2023-02-01T13:14:15;11.60;;;3.90;;
16957;SDS011;8595;52.542;11.974;2023-02-01T13:16:49;15.77;;;4.60;;
16957;SDS011;8595;52.542;11.974;2023-02-01T13:19:20;13.10;;;4.87;;
16957;SDS011;8595;52.542;11.974;2023-02-01T13:21:51;14.90;;;5.83;;
16957;SDS011;8595;52.542;11.974;2023-02-01T13:24:30;15.23;;;4.70;;
16957;SDS011;8595;52.542;11.974;2023-02-01T13:26:59;17.80;;;4.87;;
16957;SDS011;8595;52.542;11.974;2023-02-01T13:29:27;22.97;;;5.63;;
16957;SDS011;8595;52.542;11.974;2023-02-01T13:32:16;16.57;;;4.20;;
16957;SDS011;8595;52.542;11.974;2023-02-01T13:34:57;12.80;;;4.00;;
16957;SDS011;8595;52.542;11.974;2023-02-01T13:37:49;16.90;;;4.40;;
16957;SDS011;8595;52.542;11.974;2023-02-01T13:40:36;17.83;;;4.17;;
16957;SDS011;8595;52.542;11.974;2023-02-01T13:43:09;12.40;;;3.33;;
16957;SDS011;8595;52.542;11.974;2023-02-01T13:45:42;10.27;;;3.87;;
16957;SDS011;8595;52.542;11.974;2023-02-01T13:48:19;10.80;;;4.20;;
16957;SDS011;8595;52.542;11.974;2023-02-01T13:50:53;18.53;;;4.07;;
16957;SDS011;8595;52.542;11.974;2023-02-01T13:53:23;12.83;;;3.57;;
16957;SDS011;8595;52.542;11.974;2023-02-01T13:55:55;12.90;;;4.23;;
16957;SDS011;8595;52.542;11.974;2023-02-01T13:58:31;12.20;;;4.20;;
16957;SDS011;8595;52.542;11.974;2023-02-01T14:07:18;14.57;;;4.07;;
16957;SDS011;8595;52.542;11.974;2023-02-01T14:09:45;12.10;;;4.27;;
16957;SDS011;8595;52.542;11.974;2023-02-01T14:15:25;10.03;;;3.63;;
16957;SDS011;8595;52.542;11.974;2023-02-01T14:17:53;14.10;;;3.47;;
16957;SDS011;8595;52.542;11.974;2023-02-01T14:23:25;9.43;;;3.83;;
16957;SDS011;8595;52.542;11.974;2023-02-01T14:26:00;9.53;;;4.40;;
16957;SDS011;8595;52.542;11.974;2023-02-01T14:28:40;15.67;;;4.17;;
16957;SDS011;8595;52.542;11.974;2023-02-01T14:31:14;14.37;;;4.00;;
16957;SDS011;8595;52.542;11.974;2023-02-01T14:34:00;12.87;;;4.27;;
16957;SDS011;8595;52.542;11.974;2023-02-01T14:36:42;13.27;;;4.47;;
16957;SDS011;8595;52.542;11.974;2023-02-01T14:42:18;8.70;;;4.47;;
16957;SDS011;8595;52.542;11.974;2023-02-01T14:44:48;16.80;;;5.17;;
16957;SDS011;8595;52.542;11.974;2023-02-01T14:50:03;17.93;;;5.63;;
16957;SDS011;8595;52.542;11.974;2023-02-01T14:52:58;17.10;;;6.37;;
16957;SDS011;8595;52.542;11.974;2023-02-01T14:55:37;12.93;;;5.27;;
16957;SDS011;8595;52.542;11.974;2023-02-01T14:58:12;12.20;;;4.97;;
16957;SDS011;8595;52.542;11.974;2023-02-01T15:00:46;13.67;;;5.20;;
16957;SDS011;8595;52.542;11.974;2023-02-01T15:03:32;13.73;;;5.93;;
16957;SDS011;8595;52.542;11.974;2023-02-01T15:06:13;7.53;;;3.00;;
16957;SDS011;8595;52.542;11.974;2023-02-01T15:08:48;3.33;;;2.40;;
16957;SDS011;8595;52.542;11.974;2023-02-01T15:11:16;5.20;;;2.80;;
16957;SDS011;8595;52.542;11.974;2023-02-01T15:13:47;2.87;;;2.67;;
16957;SDS011;8595;52.542;11.974;2023-02-01T15:16:16;5.27;;;3.10;;
16957;SDS011;8595;52.542;11.974;2023-02-01T15:18:43;8.23;;;5.53;;
16957;SDS011;8595;52.542;11.974;2023-02-01T15:21:15;5.57;;;4.50;;
16957;SDS011;8595;52.542;11.974;2023-02-01T15:23:43;5.10;;;3.20;;
16957;SDS011;8595;52.542;11.974;2023-02-01T15:26:25;3.83;;;2.90;;
16957;SDS011;8595;52.542;11.974;2023-02-01T15:28:53;2.17;;;1.97;;
16957;SDS011;8595;52.542;11.974;2023-02-01T15:31:31;2.00;;;1.90;;